createdAt,value
2022-08-08T00:00:55.024Z,14.78
2022-08-08T00:03:13.273Z,14.72
2022-08-08T00:06:03.867Z,14.70
2022-08-08T00:08:43.452Z,14.66
2022-08-08T00:11:46.840Z,14.62
2022-08-08T00:14:54.787Z,14.60
2022-08-08T00:17:48.049Z,14.55
2022-08-08T00:20:34.240Z,14.51
2022-08-08T00:23:11.405Z,14.48
2022-08-08T00:25:51.214Z,14.45
2022-08-08T00:28:35.330Z,14.38
2022-08-08T00:32:21.292Z,14.34
2022-08-08T00:34:48.698Z,14.31
2022-08-08T00:37:48.015Z,14.28
2022-08-08T00:41:12.668Z,14.26
2022-08-08T00:44:53.479Z,14.24
2022-08-08T00:48:30.226Z,14.20
2022-08-08T00:52:14.962Z,14.14
2022-08-08T00:55:22.305Z,14.07
2022-08-08T00:58:54.148Z,14.00
2022-08-08T01:01:38.783Z,13.96
2022-08-08T01:04:59.488Z,13.92
2022-08-08T01:08:14.427Z,13.89
2022-08-08T01:11:48.312Z,13.87
2022-08-08T01:15:26.128Z,13.84
2022-08-08T01:19:52.066Z,13.78
2022-08-08T01:23:05.761Z,13.73
2022-08-08T01:26:34.329Z,13.68
2022-08-08T01:29:58.611Z,13.63
2022-08-08T01:34:00.105Z,13.57
2022-08-08T01:37:56.527Z,13.52
2022-08-08T01:40:34.810Z,13.47
2022-08-08T01:43:20.218Z,13.44
2022-08-08T01:46:02.041Z,13.38
2022-08-08T01:48:53.245Z,13.32
2022-08-08T01:52:33.469Z,13.29
2022-08-08T01:55:25.561Z,13.23
2022-08-08T01:58:39.466Z,13.15
2022-08-08T02:01:28.105Z,13.10
2022-08-08T02:04:35.020Z,13.07
2022-08-08T02:07:10.403Z,13.04
2022-08-08T02:10:30.085Z,12.98
2022-08-08T02:13:52.333Z,12.94
2022-08-08T02:16:21.158Z,12.88
2022-08-08T02:19:10.051Z,12.85
2022-08-08T02:22:18.819Z,12.81
2022-08-08T02:25:00.925Z,12.73
2022-08-08T02:27:43.962Z,12.69
2022-08-08T02:30:24.867Z,12.67
2022-08-08T02:33:14.375Z,12.65
2022-08-08T02:36:04.525Z,12.60
2022-08-08T02:38:54.857Z,12.55
2022-08-08T02:42:18.097Z,12.49
2022-08-08T02:45:57.451Z,12.50
2022-08-08T02:49:09.402Z,12.49
2022-08-08T02:52:32.597Z,12.47
2022-08-08T02:55:37.184Z,12.47
2022-08-08T02:59:05.869Z,12.43
2022-08-08T03:02:39.605Z,12.38
2022-08-08T03:06:00.219Z,12.33
2022-08-08T03:09:34.344Z,12.28
2022-08-08T03:13:07.204Z,12.25
2022-08-08T03:16:19.776Z,12.24
2022-08-08T03:19:50.720Z,12.18
2022-08-08T03:22:38.484Z,12.15
2022-08-08T03:25:17.915Z,12.13
2022-08-08T03:27:57.098Z,12.09
2022-08-08T03:30:26.948Z,12.08
2022-08-08T03:33:55.863Z,12.07
2022-08-08T03:36:04.475Z,12.03
2022-08-08T03:38:57.287Z,12.01
2022-08-08T03:42:12.359Z,11.98
2022-08-08T03:44:25.704Z,11.96
2022-08-08T03:46:55.107Z,11.95
2022-08-08T03:49:57.547Z,11.91
2022-08-08T03:52:16.079Z,11.86
2022-08-08T03:55:02.583Z,11.85
2022-08-08T03:58:30.523Z,11.82
2022-08-08T04:00:30.565Z,11.81
2022-08-08T04:03:03.490Z,11.80
2022-08-08T04:05:36.165Z,11.80
2022-08-08T04:08:08.658Z,11.77
2022-08-08T04:10:38.618Z,11.76
2022-08-08T04:13:17.468Z,11.78
2022-08-08T04:16:03.563Z,11.79
2022-08-08T04:18:41.883Z,11.79
2022-08-08T04:21:13.837Z,11.76
2022-08-08T04:24:12.095Z,11.75
2022-08-08T04:26:57.226Z,11.73
2022-08-08T04:29:36.973Z,11.71
2022-08-08T04:32:08.290Z,11.70
2022-08-08T04:34:49.289Z,11.71
2022-08-08T04:37:32.132Z,11.71
2022-08-08T04:40:05.140Z,11.72
2022-08-08T04:42:36.783Z,11.74
2022-08-08T04:45:09.036Z,11.73
2022-08-08T04:47:46.139Z,11.75
2022-08-08T04:50:24.121Z,11.75
2022-08-08T04:53:01.103Z,11.78
2022-08-08T04:55:47.711Z,11.78
2022-08-08T04:58:23.448Z,11.82
2022-08-08T05:00:53.694Z,11.85
2022-08-08T05:04:08.238Z,11.86
2022-08-08T05:06:12.713Z,11.90
2022-08-08T05:08:43.251Z,11.94
2022-08-08T05:11:17.393Z,11.99
2022-08-08T05:13:54.923Z,12.05
2022-08-08T05:16:51.673Z,12.11
2022-08-08T05:20:12.852Z,12.18
2022-08-08T05:22:10.118Z,12.24
2022-08-08T05:24:40.324Z,12.32
2022-08-08T05:27:09.269Z,12.38
2022-08-08T05:29:38.510Z,12.44
2022-08-08T05:32:12.705Z,12.49
2022-08-08T05:34:49.306Z,12.53
2022-08-08T05:37:24.019Z,12.61
2022-08-08T05:40:09.935Z,12.71
2022-08-08T05:42:49.162Z,12.79
2022-08-08T05:45:25.071Z,12.91
2022-08-08T05:48:08.631Z,12.98
2022-08-08T05:50:39.265Z,13.06
2022-08-08T05:53:54.751Z,13.18
2022-08-08T05:56:10.376Z,13.26
2022-08-08T05:58:56.935Z,13.39
2022-08-08T06:01:52.605Z,13.56
2022-08-08T06:04:28.761Z,13.71
2022-08-08T06:07:00.462Z,13.88
2022-08-08T06:10:00.618Z,14.00
2022-08-08T06:12:31.057Z,14.17
2022-08-08T06:15:03.016Z,14.30
2022-08-08T06:18:18.296Z,14.48
2022-08-08T06:20:27.143Z,14.67
2022-08-08T06:22:57.964Z,14.91
2022-08-08T06:25:58.789Z,15.06
2022-08-08T06:28:29.022Z,15.28
2022-08-08T06:31:03.232Z,15.51
2022-08-08T06:34:26.067Z,15.69
2022-08-08T06:36:47.781Z,15.84
2022-08-08T06:39:25.246Z,16.00
2022-08-08T06:42:03.233Z,16.20
2022-08-08T06:44:34.493Z,16.38
2022-08-08T06:47:03.763Z,16.51
2022-08-08T06:49:56.627Z,16.68
2022-08-08T06:52:27.686Z,16.94
2022-08-08T06:54:58.673Z,17.15
2022-08-08T06:57:29.471Z,17.41
2022-08-08T07:00:30.222Z,17.68
2022-08-08T07:03:08.578Z,17.91
2022-08-08T07:06:01.977Z,18.14
2022-08-08T07:08:39.345Z,18.39
2022-08-08T07:11:22.259Z,18.66
2022-08-08T07:14:01.678Z,18.95
2022-08-08T07:16:51.083Z,19.22
2022-08-08T07:19:38.864Z,19.54
2022-08-08T07:22:11.891Z,19.86
2022-08-08T07:24:56.710Z,20.21
2022-08-08T07:27:35.171Z,20.55
2022-08-08T07:30:25.329Z,20.87
2022-08-08T07:32:59.550Z,21.25
2022-08-08T07:35:31.270Z,21.62
2022-08-08T07:38:10.488Z,22.02
2022-08-08T07:41:04.169Z,22.45
2022-08-08T07:43:37.602Z,22.68
2022-08-08T07:46:23.503Z,22.99
2022-08-08T07:48:53.202Z,23.41
2022-08-08T07:51:23.992Z,23.81
2022-08-08T07:54:26.530Z,24.24
2022-08-08T07:57:26.923Z,24.64
2022-08-08T08:00:15.954Z,25.02
2022-08-08T08:02:55.979Z,25.31
2022-08-08T08:05:33.329Z,25.59
2022-08-08T08:08:07.738Z,25.95
2022-08-08T08:10:39.436Z,26.29
2022-08-08T08:13:25.980Z,26.64
2022-08-08T08:16:19.224Z,27.05
2022-08-08T08:18:56.480Z,27.34
2022-08-08T08:21:44.269Z,27.56
2022-08-08T08:24:19.280Z,27.78
2022-08-08T08:26:52.847Z,27.88
2022-08-08T08:29:28.039Z,28.16
2022-08-08T08:31:58.351Z,28.51
2022-08-08T08:34:32.551Z,28.88
2022-08-08T08:37:08.184Z,29.17
2022-08-08T08:39:59.247Z,29.50
2022-08-08T08:42:29.114Z,29.83
2022-08-08T08:45:21.281Z,30.12
2022-08-08T08:47:54.600Z,30.38
2022-08-08T08:50:31.931Z,30.56
2022-08-08T08:53:54.090Z,30.64
2022-08-08T08:56:02.539Z,30.53
2022-08-08T08:58:35.545Z,30.59
2022-08-08T09:01:13.595Z,30.60
2022-08-08T09:03:50.443Z,31.04
2022-08-08T09:06:26.802Z,31.45
2022-08-08T09:09:07.247Z,31.88
2022-08-08T09:12:02.414Z,32.21
2022-08-08T09:14:43.158Z,32.52
2022-08-08T09:17:19.066Z,32.80
2022-08-08T09:22:02.130Z,32.94
2022-08-08T09:22:39.382Z,33.08
2022-08-08T09:25:10.597Z,33.22
2022-08-08T09:27:56.082Z,33.29
2022-08-08T09:30:32.506Z,33.34
2022-08-08T09:33:54.181Z,33.62
2022-08-08T09:35:54.691Z,33.49
2022-08-08T09:38:52.590Z,33.48
2022-08-08T09:42:13.960Z,33.54
2022-08-08T09:44:45.693Z,33.49
2022-08-08T09:48:04.894Z,33.55
2022-08-08T09:50:13.569Z,33.58
2022-08-08T09:52:58.388Z,33.65
2022-08-08T09:55:51.873Z,33.98
2022-08-08T09:58:26.312Z,34.47
2022-08-08T10:01:14.495Z,34.80
2022-08-08T10:03:56.289Z,35.09
2022-08-08T10:06:29.768Z,35.28
2022-08-08T10:09:01.620Z,35.50
2022-08-08T10:12:26.527Z,35.76
2022-08-08T10:14:28.293Z,35.95
2022-08-08T10:17:56.526Z,36.10
2022-08-08T10:20:00.033Z,36.05
2022-08-08T10:22:33.314Z,36.17
2022-08-08T10:25:16.616Z,36.07
2022-08-08T10:27:46.186Z,36.00
2022-08-08T10:31:00.295Z,35.97
2022-08-08T10:33:12.245Z,35.94
2022-08-08T10:36:07.462Z,36.15
2022-08-08T10:38:35.529Z,36.44
2022-08-08T10:41:20.316Z,36.54
2022-08-08T10:43:52.647Z,36.61
2022-08-08T10:46:30.193Z,36.62
2022-08-08T10:49:00.268Z,36.66
2022-08-08T10:51:47.447Z,36.63
2022-08-08T10:54:27.017Z,36.88
2022-08-08T10:57:00.444Z,36.98
2022-08-08T10:59:39.669Z,37.09
2022-08-08T11:02:10.618Z,37.07
2022-08-08T11:04:53.045Z,37.11
2022-08-08T11:08:30.106Z,36.90
2022-08-08T11:10:28.372Z,37.28
2022-08-08T11:13:29.994Z,37.58
2022-08-08T11:15:52.387Z,37.91
2022-08-08T11:18:32.570Z,37.85
2022-08-08T11:21:08.793Z,37.92
2022-08-08T11:23:43.339Z,38.10
2022-08-08T11:26:19.460Z,38.06
2022-08-08T11:28:50.593Z,37.48
2022-08-08T11:31:23.143Z,36.97
2022-08-08T11:34:03.207Z,37.27
2022-08-08T11:36:36.362Z,37.71
2022-08-08T11:39:12.708Z,38.02
2022-08-08T11:41:45.621Z,38.24
2022-08-08T11:44:15.856Z,38.37
2022-08-08T11:46:45.596Z,38.36
2022-08-08T11:49:22.880Z,38.47
2022-08-08T11:51:53.846Z,38.59
2022-08-08T11:54:34.818Z,38.85
2022-08-08T11:57:14.621Z,38.88
2022-08-08T12:00:01.228Z,38.89
2022-08-08T12:02:34.241Z,38.88
2022-08-08T12:05:07.298Z,39.02
2022-08-08T12:07:49.719Z,38.99
2022-08-08T12:10:22.553Z,38.80
2022-08-08T12:13:03.499Z,38.45
2022-08-08T12:15:42.498Z,38.73
2022-08-08T12:18:21.419Z,38.89
2022-08-08T12:20:54.696Z,38.96
2022-08-08T12:23:42.845Z,39.20
2022-08-08T12:26:28.164Z,38.61
2022-08-08T12:29:21.754Z,38.40
2022-08-08T12:32:13.454Z,37.52
2022-08-08T12:34:48.922Z,37.57
2022-08-08T12:37:22.807Z,37.77
2022-08-08T12:40:01.189Z,38.39
2022-08-08T12:42:32.911Z,38.76
2022-08-08T12:45:57.921Z,39.00
2022-08-08T12:48:09.608Z,39.13
2022-08-08T12:50:54.661Z,39.29
2022-08-08T12:53:35.187Z,39.35
2022-08-08T12:56:19.891Z,39.48
2022-08-08T12:58:55.278Z,39.08
2022-08-08T13:01:37.754Z,38.68
2022-08-08T13:04:18.312Z,38.66
2022-08-08T13:06:55.740Z,38.98
2022-08-08T13:10:00.657Z,39.27
2022-08-08T13:12:30.192Z,39.51
2022-08-08T13:15:02.263Z,39.60
2022-08-08T13:18:08.847Z,39.74
2022-08-08T13:20:26.006Z,39.75
2022-08-08T13:25:58.597Z,39.73
2022-08-08T13:28:32.634Z,39.78
2022-08-08T13:31:04.008Z,39.72
2022-08-08T13:33:42.153Z,39.69
2022-08-08T13:36:13.698Z,39.81
2022-08-08T13:38:43.031Z,39.96
2022-08-08T13:41:16.361Z,39.90
2022-08-08T13:43:47.677Z,39.81
2022-08-08T13:46:26.060Z,39.80
2022-08-08T13:49:11.265Z,39.85
2022-08-08T13:51:52.319Z,39.81
2022-08-08T13:54:22.994Z,39.68
2022-08-08T13:57:12.441Z,39.60
2022-08-08T13:59:48.353Z,39.56
2022-08-08T14:02:21.171Z,39.61
2022-08-08T14:05:00.340Z,39.69
2022-08-08T14:07:42.376Z,39.73
2022-08-08T14:10:17.460Z,39.75
2022-08-08T14:12:48.360Z,39.80
2022-08-08T14:15:31.382Z,39.77
2022-08-08T14:18:36.660Z,39.78
2022-08-08T14:21:07.892Z,39.77
2022-08-08T14:24:04.199Z,39.79
2022-08-08T14:26:33.356Z,39.79
2022-08-08T14:29:06.092Z,38.67
2022-08-08T14:32:08.932Z,37.65
2022-08-08T14:34:39.131Z,38.33
2022-08-08T14:37:17.410Z,38.72
2022-08-08T14:39:53.986Z,38.82
2022-08-08T14:42:55.056Z,38.95
2022-08-08T14:45:33.671Z,39.10
2022-08-08T14:48:27.442Z,39.25
2022-08-08T14:51:07.510Z,39.30
2022-08-08T14:53:55.022Z,39.28
2022-08-08T14:56:25.942Z,39.35
2022-08-08T14:58:56.157Z,39.37
2022-08-08T15:01:29.991Z,39.39
2022-08-08T15:04:12.571Z,39.44
2022-08-08T15:06:44.481Z,39.03
2022-08-08T15:09:16.533Z,39.19
2022-08-08T15:11:53.439Z,39.41
2022-08-08T15:14:25.286Z,39.53
2022-08-08T15:16:57.131Z,39.56
2022-08-08T15:19:27.814Z,39.54
2022-08-08T15:21:57.809Z,39.55
2022-08-08T15:24:31.815Z,39.67
2022-08-08T15:27:19.957Z,39.80
2022-08-08T15:29:50.836Z,39.86
2022-08-08T15:32:26.249Z,39.88
2022-08-08T15:35:00.269Z,39.86
2022-08-08T15:37:30.181Z,39.88
2022-08-08T15:40:02.039Z,39.93
2022-08-08T15:42:32.293Z,39.99
2022-08-08T15:45:02.862Z,39.92
2022-08-08T15:47:32.396Z,39.78
2022-08-08T15:50:02.424Z,39.76
2022-08-08T15:52:34.204Z,39.83
2022-08-08T15:55:09.968Z,39.90
2022-08-08T15:57:40.035Z,39.85
2022-08-08T16:00:26.826Z,39.88
2022-08-08T16:02:57.969Z,39.98
2022-08-08T16:05:35.831Z,40.04
2022-08-08T16:08:20.137Z,39.99
2022-08-08T16:13:05.366Z,39.98
2022-08-08T16:13:45.050Z,39.90
2022-08-08T16:16:22.340Z,39.87
2022-08-08T16:18:56.745Z,39.94
2022-08-08T16:21:30.144Z,39.96
2022-08-08T16:24:01.137Z,39.81
2022-08-08T16:26:34.982Z,39.78
2022-08-08T16:29:09.091Z,39.84
2022-08-08T16:31:48.219Z,39.87
2022-08-08T16:34:19.713Z,39.86
2022-08-08T16:36:50.887Z,39.83
2022-08-08T16:39:59.798Z,39.77
2022-08-08T16:42:17.842Z,39.61
2022-08-08T16:44:54.288Z,39.27
2022-08-08T16:47:31.490Z,39.12
2022-08-08T16:50:15.498Z,39.06
2022-08-08T16:55:04.693Z,38.97
2022-08-08T16:55:52.336Z,38.85
2022-08-08T16:58:31.698Z,38.56
2022-08-08T17:01:05.766Z,38.26
2022-08-08T17:03:59.187Z,37.97
2022-08-08T17:06:37.071Z,37.76
2022-08-08T17:09:23.084Z,37.52
2022-08-08T17:11:55.598Z,37.16
2022-08-08T17:14:34.124Z,36.92
2022-08-08T17:17:04.805Z,36.53
2022-08-08T17:19:40.743Z,36.17
2022-08-08T17:22:10.980Z,35.85
2022-08-08T17:24:42.331Z,35.64
2022-08-08T17:27:12.883Z,35.31
2022-08-08T17:29:54.699Z,34.91
2022-08-08T17:32:29.026Z,34.57
2022-08-08T17:35:54.236Z,34.23
2022-08-08T17:37:53.382Z,33.77
2022-08-08T17:40:23.251Z,33.48
2022-08-08T17:42:52.381Z,33.16
2022-08-08T17:45:24.298Z,32.86
2022-08-08T17:47:54.944Z,32.58
2022-08-08T17:50:25.060Z,32.32
2022-08-08T17:52:57.570Z,32.04
2022-08-08T17:56:06.537Z,31.77
2022-08-08T17:58:17.775Z,31.45
2022-08-08T18:00:57.272Z,31.20
2022-08-08T18:03:30.829Z,30.93
2022-08-08T18:06:02.717Z,30.71
2022-08-08T18:08:41.308Z,30.44
2022-08-08T18:11:16.302Z,30.16
2022-08-08T18:13:47.496Z,29.92
2022-08-08T18:16:23.343Z,29.67
2022-08-08T18:18:56.563Z,29.46
2022-08-08T18:21:59.983Z,29.27
2022-08-08T18:24:21.810Z,29.03
2022-08-08T18:26:55.874Z,28.81
2022-08-08T18:29:33.066Z,28.60
2022-08-08T18:32:08.088Z,28.39
2022-08-08T18:34:39.493Z,28.18
2022-08-08T18:37:10.252Z,27.99
2022-08-08T18:39:59.226Z,27.76
2022-08-08T18:42:29.348Z,27.54
2022-08-08T18:44:58.134Z,27.35
2022-08-08T18:47:33.591Z,27.16
2022-08-08T18:50:03.330Z,26.98
2022-08-08T18:52:34.616Z,26.79
2022-08-08T18:55:10.556Z,26.60
2022-08-08T18:57:44.799Z,26.42
2022-08-08T19:00:19.644Z,26.21
2022-08-08T19:03:03.889Z,26.05
2022-08-08T19:05:45.407Z,25.85
2022-08-08T19:08:24.591Z,25.71
2022-08-08T19:10:59.230Z,25.53
2022-08-08T19:13:38.417Z,25.44
2022-08-08T19:16:19.384Z,25.26
2022-08-08T19:19:02.656Z,25.08
2022-08-08T19:21:48.902Z,24.90
2022-08-08T19:24:38.129Z,24.76
2022-08-08T19:27:15.014Z,24.62
2022-08-08T19:29:46.279Z,24.49
2022-08-08T19:32:19.716Z,24.35
2022-08-08T19:34:57.443Z,24.24
2022-08-08T19:37:43.454Z,24.14
2022-08-08T19:40:16.201Z,24.01
2022-08-08T19:42:46.371Z,23.90
2022-08-08T19:45:58.205Z,23.76
2022-08-08T19:48:06.039Z,23.65
2022-08-08T19:50:56.652Z,23.57
2022-08-08T19:53:54.075Z,23.47
2022-08-08T19:56:16.121Z,23.35
2022-08-08T19:58:51.438Z,23.23
2022-08-08T20:01:24.294Z,23.08
2022-08-08T20:04:03.564Z,22.98
2022-08-08T20:06:34.042Z,22.91
2022-08-08T20:09:08.977Z,22.86
2022-08-08T20:11:43.184Z,22.78
2022-08-08T20:14:33.811Z,22.73
2022-08-08T20:17:01.641Z,22.69
2022-08-08T20:19:34.323Z,22.61
2022-08-08T20:22:20.719Z,22.53
2022-08-08T20:27:21.107Z,22.38
2022-08-08T20:30:01.059Z,22.36
2022-08-08T20:32:31.930Z,22.31
2022-08-08T20:35:03.762Z,22.26
2022-08-08T20:37:46.751Z,22.18
2022-08-08T20:40:33.534Z,22.13
2022-08-08T20:43:16.047Z,22.10
2022-08-08T20:45:57.929Z,22.04
2022-08-08T20:48:32.384Z,21.97
2022-08-08T20:51:06.178Z,21.92
2022-08-08T20:53:59.937Z,21.84
2022-08-08T20:56:35.154Z,21.82
2022-08-08T20:59:09.089Z,21.76
2022-08-08T21:02:05.307Z,21.71
2022-08-08T21:04:27.905Z,21.66
2022-08-08T21:06:57.219Z,21.60
2022-08-08T21:09:31.786Z,21.54
2022-08-08T21:12:16.535Z,21.47
2022-08-08T21:14:49.018Z,21.41
2022-08-08T21:17:18.169Z,21.35
2022-08-08T21:19:48.641Z,21.28
2022-08-08T21:22:17.758Z,21.23
2022-08-08T21:24:52.635Z,21.17
2022-08-08T21:28:06.551Z,21.09
2022-08-08T21:30:19.269Z,21.03
2022-08-08T21:32:53.369Z,20.96
2022-08-08T21:36:14.406Z,20.90
2022-08-08T21:38:16.872Z,20.82
2022-08-08T21:40:56.171Z,20.77
2022-08-08T21:43:30.905Z,20.72
2022-08-08T21:48:06.528Z,20.69
2022-08-08T21:48:57.755Z,20.63
2022-08-08T21:54:18.013Z,20.55
2022-08-08T21:54:53.548Z,20.48
2022-08-08T21:57:09.987Z,20.42
2022-08-08T22:00:01.981Z,20.37
2022-08-08T22:02:27.938Z,20.32
2022-08-08T22:04:59.552Z,20.26
2022-08-08T22:07:40.372Z,20.18
2022-08-08T22:10:28.609Z,20.11
2022-08-08T22:13:17.021Z,20.03
2022-08-08T22:15:59.108Z,19.98
2022-08-08T22:18:31.679Z,19.91
2022-08-08T22:21:13.972Z,19.84
2022-08-08T22:23:53.513Z,19.76
2022-08-08T22:26:26.863Z,19.69
2022-08-08T22:29:15.044Z,19.63
2022-08-08T22:32:01.553Z,19.53
2022-08-08T22:34:33.209Z,19.47
2022-08-08T22:37:27.721Z,19.39
2022-08-08T22:40:01.088Z,19.31
2022-08-08T22:42:32.034Z,19.23
2022-08-08T22:45:12.400Z,19.15
2022-08-08T22:47:48.751Z,19.09
2022-08-08T22:50:27.074Z,19.01
2022-08-08T22:54:30.435Z,18.94
2022-08-08T22:55:59.438Z,18.86
2022-08-08T22:58:34.609Z,18.77
2022-08-08T23:02:03.002Z,18.70
2022-08-08T23:03:57.938Z,18.61
2022-08-08T23:06:27.332Z,18.51
2022-08-08T23:08:58.874Z,18.43
2022-08-08T23:12:28.705Z,18.36
2022-08-08T23:14:21.984Z,18.27
2022-08-08T23:16:59.406Z,18.19
2022-08-08T23:19:32.165Z,18.11
2022-08-08T23:22:04.599Z,18.04
2022-08-08T23:24:36.489Z,17.98
2022-08-08T23:27:07.053Z,17.91
2022-08-08T23:29:37.418Z,17.83
2022-08-08T23:32:10.953Z,17.77
2022-08-08T23:34:58.346Z,17.72
2022-08-08T23:38:00.924Z,17.66
2022-08-08T23:40:21.893Z,17.60
2022-08-08T23:42:51.617Z,17.52
2022-08-08T23:49:01.099Z,17.40
2022-08-08T23:49:06.330Z,17.46
2022-08-08T23:51:00.642Z,17.34
2022-08-08T23:53:55.950Z,17.28
2022-08-08T23:56:31.907Z,17.20
2022-08-08T23:59:03.818Z,17.12
